createdAt,value
2018-07-03T07:26:46.885Z,232.00
2018-07-03T07:27:47.811Z,220.00
2018-07-03T07:28:47.792Z,232.00
2018-07-03T07:29:47.793Z,224.00
2018-07-03T07:30:47.737Z,224.00
2018-07-03T07:31:47.745Z,236.00
2018-07-03T07:32:47.675Z,232.00
2018-07-03T07:33:47.613Z,224.00
2018-07-03T07:34:47.579Z,220.00
2018-07-03T07:35:47.528Z,244.00
2018-07-03T07:36:47.492Z,240.00
2018-07-03T07:37:47.435Z,164.00
2018-07-03T07:38:47.391Z,104.00
2018-07-03T07:39:47.323Z,96.00
2018-07-03T07:40:47.337Z,136.00
2018-07-03T07:41:47.250Z,284.00
2018-07-03T07:42:47.223Z,296.00
2018-07-03T07:43:47.121Z,284.00
2018-07-03T07:44:47.069Z,288.00
2018-07-03T07:45:47.018Z,288.00
2018-07-03T07:46:47.005Z,268.00
2018-07-03T07:47:46.960Z,248.00
2018-07-03T07:48:46.889Z,248.00
2018-07-03T07:49:46.805Z,244.00
2018-07-03T07:50:46.843Z,280.00
2018-07-03T07:51:46.691Z,292.00
2018-07-03T07:52:46.662Z,300.00
2018-07-03T07:53:46.591Z,300.00
2018-07-03T07:54:46.581Z,296.00
2018-07-03T07:55:46.519Z,304.00
2018-07-03T07:56:46.460Z,316.00
2018-07-03T07:57:46.450Z,308.00
2018-07-03T07:58:46.376Z,292.00
2018-07-03T07:59:46.336Z,308.00
2018-07-03T08:00:46.277Z,308.00
2018-07-03T08:01:46.240Z,312.00
2018-07-03T08:02:46.221Z,320.00
2018-07-03T08:03:40.085Z,324.00
2018-07-03T08:04:41.067Z,308.00
2018-07-03T08:05:41.044Z,308.00
2018-07-03T08:06:41.035Z,312.00
2018-07-03T08:07:40.975Z,316.00
2018-07-03T08:08:40.971Z,288.00
